sensor_id;sensor_type;location;lat;lon;timestamp;temperature;humidity
48744;DHT22;34538;48.836;9.174;2022-09-13T00:00:56;14.00;99.90
48744;DHT22;34538;48.836;9.174;2022-09-13T00:03:22;14.00;99.90
48744;DHT22;34538;48.836;9.174;2022-09-13T00:05:48;13.90;99.90
48744;DHT22;34538;48.836;9.174;2022-09-13T00:08:14;13.90;99.90
48744;DHT22;34538;48.836;9.174;2022-09-13T00:10:43;13.90;99.90
48744;DHT22;34538;48.836;9.174;2022-09-13T00:13:10;13.90;99.90
48744;DHT22;34538;48.836;9.174;2022-09-13T00:15:36;13.80;99.90
48744;DHT22;34538;48.836;9.174;2022-09-13T00:18:06;13.90;99.90
48744;DHT22;34538;48.836;9.174;2022-09-13T00:20:32;13.80;99.90
48744;DHT22;34538;48.836;9.174;2022-09-13T00:22:57;13.80;99.90
48744;DHT22;34538;48.836;9.174;2022-09-13T00:25:23;13.80;99.90
48744;DHT22;34538;48.836;9.174;2022-09-13T00:27:49;13.80;99.90
48744;DHT22;34538;48.836;9.174;2022-09-13T00:30:14;13.80;99.90
48744;DHT22;34538;48.836;9.174;2022-09-13T00:32:40;13.80;99.90
48744;DHT22;34538;48.836;9.174;2022-09-13T00:35:07;13.80;99.90
48744;DHT22;34538;48.836;9.174;2022-09-13T00:37:33;13.80;99.90
48744;DHT22;34538;48.836;9.174;2022-09-13T00:39:59;13.70;99.90
48744;DHT22;34538;48.836;9.174;2022-09-13T00:42:26;13.70;99.90
48744;DHT22;34538;48.836;9.174;2022-09-13T00:53:10;13.60;99.90
48744;DHT22;34538;48.836;9.174;2022-09-13T00:58:28;13.50;99.90
48744;DHT22;34538;48.836;9.174;2022-09-13T01:00:56;13.50;99.90
48744;DHT22;34538;48.836;9.174;2022-09-13T01:03:26;13.50;99.90
48744;DHT22;34538;48.836;9.174;2022-09-13T01:06:06;13.40;99.90
48744;DHT22;34538;48.836;9.174;2022-09-13T01:08:34;13.50;99.90
48744;DHT22;34538;48.836;9.174;2022-09-13T01:11:02;13.40;99.90
48744;DHT22;34538;48.836;9.174;2022-09-13T01:13:33;13.40;99.90
48744;DHT22;34538;48.836;9.174;2022-09-13T01:15:59;13.40;99.90
48744;DHT22;34538;48.836;9.174;2022-09-13T01:18:25;13.30;99.90
48744;DHT22;34538;48.836;9.174;2022-09-13T01:30:21;13.30;99.90
48744;DHT22;34538;48.836;9.174;2022-09-13T01:38:58;13.20;99.90
48744;DHT22;34538;48.836;9.174;2022-09-13T01:55:00;13.10;99.90
48744;DHT22;34538;48.836;9.174;2022-09-13T01:57:31;13.10;99.90
48744;DHT22;34538;48.836;9.174;2022-09-13T02:00:21;13.10;99.90
48744;DHT22;34538;48.836;9.174;2022-09-13T02:03:03;13.10;99.90
48744;DHT22;34538;48.836;9.174;2022-09-13T02:05:36;13.10;99.90
48744;DHT22;34538;48.836;9.174;2022-09-13T02:08:08;13.10;99.90
48744;DHT22;34538;48.836;9.174;2022-09-13T02:10:37;13.10;99.90
48744;DHT22;34538;48.836;9.174;2022-09-13T02:13:09;13.00;99.90
48744;DHT22;34538;48.836;9.174;2022-09-13T02:15:38;13.00;99.90
48744;DHT22;34538;48.836;9.174;2022-09-13T02:18:23;13.00;99.90
48744;DHT22;34538;48.836;9.174;2022-09-13T02:20:51;13.00;99.90
48744;DHT22;34538;48.836;9.174;2022-09-13T02:23:27;13.00;99.90
48744;DHT22;34538;48.836;9.174;2022-09-13T02:25:56;13.00;99.90
48744;DHT22;34538;48.836;9.174;2022-09-13T02:28:31;13.00;99.90
48744;DHT22;34538;48.836;9.174;2022-09-13T02:31:00;13.00;99.90
48744;DHT22;34538;48.836;9.174;2022-09-13T02:33:36;12.90;99.90
48744;DHT22;34538;48.836;9.174;2022-09-13T02:36:04;12.90;99.90
48744;DHT22;34538;48.836;9.174;2022-09-13T02:38:35;12.90;99.90
48744;DHT22;34538;48.836;9.174;2022-09-13T02:41:26;12.90;99.90
48744;DHT22;34538;48.836;9.174;2022-09-13T02:44:17;12.90;99.90
48744;DHT22;34538;48.836;9.174;2022-09-13T02:46:59;12.90;99.90
48744;DHT22;34538;48.836;9.174;2022-09-13T02:49:47;12.90;99.90
48744;DHT22;34538;48.836;9.174;2022-09-13T02:55:21;12.80;99.90
48744;DHT22;34538;48.836;9.174;2022-09-13T02:57:59;12.80;99.90
48744;DHT22;34538;48.836;9.174;2022-09-13T03:00:25;12.80;99.90
48744;DHT22;34538;48.836;9.174;2022-09-13T03:02:52;12.80;99.90
48744;DHT22;34538;48.836;9.174;2022-09-13T03:05:19;12.80;99.90
48744;DHT22;34538;48.836;9.174;2022-09-13T03:07:45;12.80;99.90
48744;DHT22;34538;48.836;9.174;2022-09-13T03:10:13;12.70;99.90
48744;DHT22;34538;48.836;9.174;2022-09-13T03:34:48;12.80;99.90
48744;DHT22;34538;48.836;9.174;2022-09-13T03:37:41;12.80;99.90
48744;DHT22;34538;48.836;9.174;2022-09-13T03:43:05;12.70;99.90
48744;DHT22;34538;48.836;9.174;2022-09-13T03:45:35;12.80;99.90
48744;DHT22;34538;48.836;9.174;2022-09-13T03:48:02;12.80;99.90
48744;DHT22;34538;48.836;9.174;2022-09-13T03:50:29;12.80;99.90
48744;DHT22;34538;48.836;9.174;2022-09-13T03:53:09;12.80;99.90
48744;DHT22;34538;48.836;9.174;2022-09-13T03:55:38;12.80;99.90
48744;DHT22;34538;48.836;9.174;2022-09-13T03:58:05;12.80;99.90
48744;DHT22;34538;48.836;9.174;2022-09-13T04:00:30;12.80;99.90
48744;DHT22;34538;48.836;9.174;2022-09-13T04:02:56;12.80;99.90
48744;DHT22;34538;48.836;9.174;2022-09-13T04:05:22;12.80;99.90
48744;DHT22;34538;48.836;9.174;2022-09-13T04:07:47;12.80;99.90
48744;DHT22;34538;48.836;9.174;2022-09-13T04:10:13;12.70;99.90
48744;DHT22;34538;48.836;9.174;2022-09-13T04:12:39;12.70;99.90
48744;DHT22;34538;48.836;9.174;2022-09-13T04:15:06;12.60;99.90
48744;DHT22;34538;48.836;9.174;2022-09-13T04:17:32;12.60;99.90
48744;DHT22;34538;48.836;9.174;2022-09-13T04:19:58;12.60;99.90
48744;DHT22;34538;48.836;9.174;2022-09-13T04:22:23;12.60;99.90
48744;DHT22;34538;48.836;9.174;2022-09-13T04:24:49;12.60;99.90
48744;DHT22;34538;48.836;9.174;2022-09-13T04:27:17;12.50;99.90
48744;DHT22;34538;48.836;9.174;2022-09-13T04:29:43;12.50;99.90
48744;DHT22;34538;48.836;9.174;2022-09-13T04:32:09;12.50;99.90
48744;DHT22;34538;48.836;9.174;2022-09-13T04:34:35;12.50;99.90
48744;DHT22;34538;48.836;9.174;2022-09-13T04:37:01;12.50;99.90
48744;DHT22;34538;48.836;9.174;2022-09-13T04:39:27;12.50;99.90
48744;DHT22;34538;48.836;9.174;2022-09-13T04:41:53;12.60;99.90
48744;DHT22;34538;48.836;9.174;2022-09-13T04:44:20;12.60;99.90
48744;DHT22;34538;48.836;9.174;2022-09-13T04:46:47;12.70;99.90
48744;DHT22;34538;48.836;9.174;2022-09-13T04:49:14;12.70;99.90
48744;DHT22;34538;48.836;9.174;2022-09-13T04:51:40;12.80;99.90
48744;DHT22;34538;48.836;9.174;2022-09-13T04:54:06;12.90;99.90
48744;DHT22;34538;48.836;9.174;2022-09-13T04:56:33;12.90;99.90
48744;DHT22;34538;48.836;9.174;2022-09-13T04:58:58;13.00;99.90
48744;DHT22;34538;48.836;9.174;2022-09-13T05:01:24;13.10;99.90
48744;DHT22;34538;48.836;9.174;2022-09-13T05:03:51;13.10;99.90
48744;DHT22;34538;48.836;9.174;2022-09-13T05:06:18;13.20;99.90
48744;DHT22;34538;48.836;9.174;2022-09-13T05:08:49;13.20;99.90
48744;DHT22;34538;48.836;9.174;2022-09-13T05:11:16;13.30;99.90
48744;DHT22;34538;48.836;9.174;2022-09-13T05:13:41;13.30;99.90
48744;DHT22;34538;48.836;9.174;2022-09-13T05:16:07;13.30;99.90
48744;DHT22;34538;48.836;9.174;2022-09-13T05:18:35;13.30;99.90
48744;DHT22;34538;48.836;9.174;2022-09-13T05:21:02;13.30;99.90
48744;DHT22;34538;48.836;9.174;2022-09-13T05:23:29;13.30;99.90
48744;DHT22;34538;48.836;9.174;2022-09-13T05:26:01;13.30;99.90
48744;DHT22;34538;48.836;9.174;2022-09-13T05:28:29;13.40;99.90
48744;DHT22;34538;48.836;9.174;2022-09-13T05:31:03;13.40;99.90
48744;DHT22;34538;48.836;9.174;2022-09-13T05:33:31;13.40;99.90
48744;DHT22;34538;48.836;9.174;2022-09-13T05:35:57;13.40;99.90
48744;DHT22;34538;48.836;9.174;2022-09-13T05:38:23;13.40;99.90
48744;DHT22;34538;48.836;9.174;2022-09-13T05:40:56;13.40;99.90
48744;DHT22;34538;48.836;9.174;2022-09-13T05:43:28;13.40;99.90
48744;DHT22;34538;48.836;9.174;2022-09-13T05:46:05;13.40;99.90
48744;DHT22;34538;48.836;9.174;2022-09-13T05:48:32;13.50;99.90
48744;DHT22;34538;48.836;9.174;2022-09-13T05:53:33;13.60;99.90
48744;DHT22;34538;48.836;9.174;2022-09-13T05:55:59;13.60;99.90
48744;DHT22;34538;48.836;9.174;2022-09-13T05:58:25;13.60;99.90
48744;DHT22;34538;48.836;9.174;2022-09-13T06:00:55;13.70;99.90
48744;DHT22;34538;48.836;9.174;2022-09-13T06:03:22;13.80;99.90
48744;DHT22;34538;48.836;9.174;2022-09-13T06:05:48;13.80;99.90
48744;DHT22;34538;48.836;9.174;2022-09-13T06:08:14;13.90;99.90
48744;DHT22;34538;48.836;9.174;2022-09-13T06:10:41;13.90;99.90
48744;DHT22;34538;48.836;9.174;2022-09-13T06:13:06;14.00;99.90
48744;DHT22;34538;48.836;9.174;2022-09-13T06:15:32;14.10;99.90
48744;DHT22;34538;48.836;9.174;2022-09-13T06:17:58;14.20;99.90
48744;DHT22;34538;48.836;9.174;2022-09-13T06:20:23;14.30;99.90
48744;DHT22;34538;48.836;9.174;2022-09-13T06:22:49;14.40;99.90
48744;DHT22;34538;48.836;9.174;2022-09-13T06:25:15;14.40;99.90
48744;DHT22;34538;48.836;9.174;2022-09-13T06:27:41;14.50;99.90
48744;DHT22;34538;48.836;9.174;2022-09-13T06:30:07;14.60;99.90
48744;DHT22;34538;48.836;9.174;2022-09-13T06:32:34;14.60;99.90
48744;DHT22;34538;48.836;9.174;2022-09-13T06:34:59;14.60;99.90
48744;DHT22;34538;48.836;9.174;2022-09-13T06:37:25;14.70;99.90
48744;DHT22;34538;48.836;9.174;2022-09-13T06:39:51;14.70;99.90
48744;DHT22;34538;48.836;9.174;2022-09-13T06:42:17;14.80;99.90
48744;DHT22;34538;48.836;9.174;2022-09-13T06:44:43;14.80;99.90
48744;DHT22;34538;48.836;9.174;2022-09-13T06:47:11;14.80;99.90
48744;DHT22;34538;48.836;9.174;2022-09-13T06:49:37;14.90;99.90
48744;DHT22;34538;48.836;9.174;2022-09-13T06:52:04;15.00;99.90
48744;DHT22;34538;48.836;9.174;2022-09-13T06:54:29;15.10;99.90
48744;DHT22;34538;48.836;9.174;2022-09-13T06:56:55;15.20;99.90
48744;DHT22;34538;48.836;9.174;2022-09-13T06:59:21;15.40;99.90
48744;DHT22;34538;48.836;9.174;2022-09-13T07:01:47;15.50;99.90
48744;DHT22;34538;48.836;9.174;2022-09-13T07:04:15;15.60;99.90
48744;DHT22;34538;48.836;9.174;2022-09-13T07:06:43;15.70;99.90
48744;DHT22;34538;48.836;9.174;2022-09-13T07:09:17;15.90;99.90
48744;DHT22;34538;48.836;9.174;2022-09-13T07:11:44;16.00;99.90
48744;DHT22;34538;48.836;9.174;2022-09-13T07:14:19;16.20;99.90
48744;DHT22;34538;48.836;9.174;2022-09-13T07:16:45;16.30;99.90
48744;DHT22;34538;48.836;9.174;2022-09-13T07:19:15;16.40;99.90
48744;DHT22;34538;48.836;9.174;2022-09-13T07:21:42;16.50;99.90
48744;DHT22;34538;48.836;9.174;2022-09-13T07:24:08;16.60;99.90
48744;DHT22;34538;48.836;9.174;2022-09-13T07:26:34;16.70;99.90
48744;DHT22;34538;48.836;9.174;2022-09-13T07:29:02;16.80;99.90
48744;DHT22;34538;48.836;9.174;2022-09-13T07:31:31;16.80;99.90
48744;DHT22;34538;48.836;9.174;2022-09-13T07:34:02;16.90;99.90
48744;DHT22;34538;48.836;9.174;2022-09-13T07:36:29;17.00;99.90
48744;DHT22;34538;48.836;9.174;2022-09-13T07:38:56;17.10;99.90
48744;DHT22;34538;48.836;9.174;2022-09-13T07:41:24;17.20;99.90
48744;DHT22;34538;48.836;9.174;2022-09-13T07:43:50;17.30;99.90
48744;DHT22;34538;48.836;9.174;2022-09-13T07:46:21;17.50;99.90
48744;DHT22;34538;48.836;9.174;2022-09-13T07:48:48;17.60;99.90
48744;DHT22;34538;48.836;9.174;2022-09-13T07:51:19;17.80;99.90
48744;DHT22;34538;48.836;9.174;2022-09-13T07:53:45;18.00;99.90
48744;DHT22;34538;48.836;9.174;2022-09-13T07:56:19;18.10;99.90
48744;DHT22;34538;48.836;9.174;2022-09-13T07:58:47;18.30;99.90
48744;DHT22;34538;48.836;9.174;2022-09-13T08:01:18;18.40;99.90
48744;DHT22;34538;48.836;9.174;2022-09-13T08:03:53;18.60;99.90
48744;DHT22;34538;48.836;9.174;2022-09-13T08:06:19;18.80;99.90
48744;DHT22;34538;48.836;9.174;2022-09-13T08:08:44;18.90;99.90
48744;DHT22;34538;48.836;9.174;2022-09-13T08:11:19;19.00;99.90
48744;DHT22;34538;48.836;9.174;2022-09-13T08:13:46;19.10;99.90
48744;DHT22;34538;48.836;9.174;2022-09-13T08:16:13;19.20;99.90
48744;DHT22;34538;48.836;9.174;2022-09-13T08:18:46;19.30;99.90
48744;DHT22;34538;48.836;9.174;2022-09-13T08:21:12;19.50;99.90
48744;DHT22;34538;48.836;9.174;2022-09-13T08:23:38;19.60;99.90
48744;DHT22;34538;48.836;9.174;2022-09-13T08:26:05;19.60;99.90
48744;DHT22;34538;48.836;9.174;2022-09-13T08:28:36;19.70;99.90
48744;DHT22;34538;48.836;9.174;2022-09-13T08:31:07;19.80;99.90
48744;DHT22;34538;48.836;9.174;2022-09-13T08:33:34;19.90;99.90
48744;DHT22;34538;48.836;9.174;2022-09-13T08:36:00;20.00;99.90
48744;DHT22;34538;48.836;9.174;2022-09-13T08:38:26;20.10;99.90
48744;DHT22;34538;48.836;9.174;2022-09-13T08:46:38;20.40;99.90
48744;DHT22;34538;48.836;9.174;2022-09-13T08:49:07;20.50;99.90
48744;DHT22;34538;48.836;9.174;2022-09-13T08:51:47;20.60;99.90
48744;DHT22;34538;48.836;9.174;2022-09-13T08:54:14;20.80;99.90
48744;DHT22;34538;48.836;9.174;2022-09-13T09:02:05;21.00;99.90
48744;DHT22;34538;48.836;9.174;2022-09-13T09:07:28;21.20;99.90
48744;DHT22;34538;48.836;9.174;2022-09-13T09:10:02;21.40;99.90
48744;DHT22;34538;48.836;9.174;2022-09-13T09:12:40;21.50;99.90
48744;DHT22;34538;48.836;9.174;2022-09-13T09:15:19;21.60;99.90
48744;DHT22;34538;48.836;9.174;2022-09-13T09:17:50;21.60;99.90
48744;DHT22;34538;48.836;9.174;2022-09-13T09:20:31;21.60;99.90
48744;DHT22;34538;48.836;9.174;2022-09-13T09:23:02;21.70;99.90
48744;DHT22;34538;48.836;9.174;2022-09-13T09:25:30;21.80;99.90
48744;DHT22;34538;48.836;9.174;2022-09-13T09:27:57;21.80;99.90
48744;DHT22;34538;48.836;9.174;2022-09-13T09:30:33;21.90;99.90
48744;DHT22;34538;48.836;9.174;2022-09-13T09:33:06;22.00;99.90
48744;DHT22;34538;48.836;9.174;2022-09-13T09:36:00;22.00;99.90
48744;DHT22;34538;48.836;9.174;2022-09-13T09:41:04;22.20;99.90
48744;DHT22;34538;48.836;9.174;2022-09-13T09:44:39;22.20;99.90
48744;DHT22;34538;48.836;9.174;2022-09-13T09:46:41;22.30;99.90
48744;DHT22;34538;48.836;9.174;2022-09-13T09:49:34;22.40;99.90
48744;DHT22;34538;48.836;9.174;2022-09-13T09:52:25;22.50;99.90
48744;DHT22;34538;48.836;9.174;2022-09-13T09:54:55;22.50;99.90
48744;DHT22;34538;48.836;9.174;2022-09-13T09:57:49;22.50;99.90
48744;DHT22;34538;48.836;9.174;2022-09-13T10:00:16;22.60;99.90
48744;DHT22;34538;48.836;9.174;2022-09-13T10:02:43;22.60;99.90
48744;DHT22;34538;48.836;9.174;2022-09-13T10:05:09;22.50;99.90
48744;DHT22;34538;48.836;9.174;2022-09-13T10:07:37;22.60;99.90
48744;DHT22;34538;48.836;9.174;2022-09-13T10:10:22;22.60;99.90
48744;DHT22;34538;48.836;9.174;2022-09-13T10:12:52;22.60;99.90
48744;DHT22;34538;48.836;9.174;2022-09-13T10:15:21;22.70;99.90
48744;DHT22;34538;48.836;9.174;2022-09-13T10:18:22;22.70;99.90
48744;DHT22;34538;48.836;9.174;2022-09-13T10:23:48;22.90;99.90
48744;DHT22;34538;48.836;9.174;2022-09-13T10:26:19;22.90;99.90
48744;DHT22;34538;48.836;9.174;2022-09-13T10:28:59;23.00;99.90
48744;DHT22;34538;48.836;9.174;2022-09-13T10:31:37;23.10;99.90
48744;DHT22;34538;48.836;9.174;2022-09-13T10:34:13;23.20;99.90
48744;DHT22;34538;48.836;9.174;2022-09-13T10:36:55;23.30;99.90
48744;DHT22;34538;48.836;9.174;2022-09-13T10:39:22;23.30;99.90
48744;DHT22;34538;48.836;9.174;2022-09-13T10:41:52;23.40;99.90
48744;DHT22;34538;48.836;9.174;2022-09-13T10:44:40;23.50;99.90
48744;DHT22;34538;48.836;9.174;2022-09-13T10:47:17;23.70;99.90
48744;DHT22;34538;48.836;9.174;2022-09-13T10:49:54;23.80;99.90
48744;DHT22;34538;48.836;9.174;2022-09-13T10:52:34;23.90;99.90
48744;DHT22;34538;48.836;9.174;2022-09-13T11:22:49;25.50;97.20
48744;DHT22;34538;48.836;9.174;2022-09-13T11:30:24;26.00;97.10
48744;DHT22;34538;48.836;9.174;2022-09-13T11:33:04;26.20;97.10
48744;DHT22;34538;48.836;9.174;2022-09-13T11:35:48;26.30;96.10
48744;DHT22;34538;48.836;9.174;2022-09-13T11:39:14;26.40;94.80
48744;DHT22;34538;48.836;9.174;2022-09-13T11:41:35;26.50;95.30
48744;DHT22;34538;48.836;9.174;2022-09-13T11:44:27;26.50;94.80
48744;DHT22;34538;48.836;9.174;2022-09-13T11:47:19;26.50;95.60
48744;DHT22;34538;48.836;9.174;2022-09-13T11:53:03;26.50;94.90
48744;DHT22;34538;48.836;9.174;2022-09-13T11:55:48;26.60;94.80
48744;DHT22;34538;48.836;9.174;2022-09-13T11:58:22;26.70;94.20
48744;DHT22;34538;48.836;9.174;2022-09-13T12:01:01;26.70;93.80
48744;DHT22;34538;48.836;9.174;2022-09-13T12:03:36;26.60;93.70
48744;DHT22;34538;48.836;9.174;2022-09-13T12:06:17;26.70;93.40
48744;DHT22;34538;48.836;9.174;2022-09-13T12:08:46;26.70;93.20
48744;DHT22;34538;48.836;9.174;2022-09-13T12:13:57;26.80;93.40
48744;DHT22;34538;48.836;9.174;2022-09-13T12:16:42;26.90;93.40
48744;DHT22;34538;48.836;9.174;2022-09-13T12:19:39;27.00;92.70
48744;DHT22;34538;48.836;9.174;2022-09-13T12:22:06;27.10;92.90
48744;DHT22;34538;48.836;9.174;2022-09-13T12:24:39;27.20;92.60
48744;DHT22;34538;48.836;9.174;2022-09-13T12:27:12;27.20;93.40
48744;DHT22;34538;48.836;9.174;2022-09-13T12:29:50;27.20;92.70
48744;DHT22;34538;48.836;9.174;2022-09-13T12:32:18;27.20;92.20
48744;DHT22;34538;48.836;9.174;2022-09-13T12:46:54;27.20;91.50
48744;DHT22;34538;48.836;9.174;2022-09-13T12:49:42;27.20;92.00
48744;DHT22;34538;48.836;9.174;2022-09-13T13:01:14;27.10;91.60
48744;DHT22;34538;48.836;9.174;2022-09-13T13:03:46;27.00;91.30
48744;DHT22;34538;48.836;9.174;2022-09-13T13:08:52;27.00;91.60
48744;DHT22;34538;48.836;9.174;2022-09-13T13:11:23;27.10;90.70
48744;DHT22;34538;48.836;9.174;2022-09-13T13:14:01;27.20;91.30
48744;DHT22;34538;48.836;9.174;2022-09-13T13:16:38;27.20;91.10
48744;DHT22;34538;48.836;9.174;2022-09-13T13:19:32;27.20;90.60
48744;DHT22;34538;48.836;9.174;2022-09-13T13:25:31;27.30;90.60
48744;DHT22;34538;48.836;9.174;2022-09-13T13:27:57;27.20;90.20
48744;DHT22;34538;48.836;9.174;2022-09-13T13:30:41;27.20;90.30
48744;DHT22;34538;48.836;9.174;2022-09-13T13:33:21;27.20;90.40
48744;DHT22;34538;48.836;9.174;2022-09-13T13:35:48;27.20;90.20
48744;DHT22;34538;48.836;9.174;2022-09-13T13:41:05;27.20;90.20
48744;DHT22;34538;48.836;9.174;2022-09-13T13:43:32;27.30;90.30
48744;DHT22;34538;48.836;9.174;2022-09-13T13:46:22;27.40;90.30
48744;DHT22;34538;48.836;9.174;2022-09-13T13:48:48;27.40;90.10
48744;DHT22;34538;48.836;9.174;2022-09-13T13:51:25;27.40;88.80
48744;DHT22;34538;48.836;9.174;2022-09-13T13:53:57;27.50;88.70
48744;DHT22;34538;48.836;9.174;2022-09-13T13:56:33;27.50;86.90
48744;DHT22;34538;48.836;9.174;2022-09-13T14:01:42;27.50;87.10
48744;DHT22;34538;48.836;9.174;2022-09-13T14:06:57;27.40;87.20
48744;DHT22;34538;48.836;9.174;2022-09-13T14:09:54;27.40;85.20
48744;DHT22;34538;48.836;9.174;2022-09-13T14:12:49;27.40;85.60
48744;DHT22;34538;48.836;9.174;2022-09-13T14:21:17;27.40;84.90
48744;DHT22;34538;48.836;9.174;2022-09-13T14:23:44;27.40;83.70
48744;DHT22;34538;48.836;9.174;2022-09-13T14:26:10;27.40;84.20
48744;DHT22;34538;48.836;9.174;2022-09-13T14:28:36;27.40;85.30
48744;DHT22;34538;48.836;9.174;2022-09-13T14:31:02;27.40;85.10
48744;DHT22;34538;48.836;9.174;2022-09-13T14:33:31;27.40;84.60
48744;DHT22;34538;48.836;9.174;2022-09-13T14:36:19;27.40;83.70
48744;DHT22;34538;48.836;9.174;2022-09-13T14:38:50;27.40;83.60
48744;DHT22;34538;48.836;9.174;2022-09-13T14:41:22;27.30;83.30
48744;DHT22;34538;48.836;9.174;2022-09-13T14:43:53;27.30;83.00
48744;DHT22;34538;48.836;9.174;2022-09-13T14:46:24;27.40;82.50
48744;DHT22;34538;48.836;9.174;2022-09-13T14:48:54;27.30;81.70
48744;DHT22;34538;48.836;9.174;2022-09-13T14:51:27;27.40;80.00
48744;DHT22;34538;48.836;9.174;2022-09-13T14:54:02;27.40;82.10
48744;DHT22;34538;48.836;9.174;2022-09-13T14:56:41;27.40;81.50
48744;DHT22;34538;48.836;9.174;2022-09-13T15:01:48;27.30;81.00
48744;DHT22;34538;48.836;9.174;2022-09-13T15:04:16;27.30;80.80
48744;DHT22;34538;48.836;9.174;2022-09-13T15:06:43;27.30;81.30
48744;DHT22;34538;48.836;9.174;2022-09-13T15:11:37;27.30;81.50
48744;DHT22;34538;48.836;9.174;2022-09-13T15:14:41;27.20;80.40
48744;DHT22;34538;48.836;9.174;2022-09-13T15:17:10;27.20;80.30
48744;DHT22;34538;48.836;9.174;2022-09-13T15:20:03;27.10;79.50
48744;DHT22;34538;48.836;9.174;2022-09-13T15:22:31;27.10;78.30
48744;DHT22;34538;48.836;9.174;2022-09-13T15:24:59;27.00;79.60
48744;DHT22;34538;48.836;9.174;2022-09-13T15:27:30;27.00;80.00
48744;DHT22;34538;48.836;9.174;2022-09-13T15:29:59;26.90;78.90
48744;DHT22;34538;48.836;9.174;2022-09-13T15:32:31;26.90;78.60
48744;DHT22;34538;48.836;9.174;2022-09-13T15:34:58;26.80;78.60
48744;DHT22;34538;48.836;9.174;2022-09-13T15:37:34;26.80;77.80
48744;DHT22;34538;48.836;9.174;2022-09-13T15:40:19;26.70;78.30
48744;DHT22;34538;48.836;9.174;2022-09-13T15:42:47;26.70;79.40
48744;DHT22;34538;48.836;9.174;2022-09-13T15:45:13;26.60;79.00
48744;DHT22;34538;48.836;9.174;2022-09-13T15:47:39;26.60;80.00
48744;DHT22;34538;48.836;9.174;2022-09-13T15:50:05;26.60;79.70
48744;DHT22;34538;48.836;9.174;2022-09-13T15:52:31;26.50;81.50
48744;DHT22;34538;48.836;9.174;2022-09-13T15:54:57;26.50;81.20
48744;DHT22;34538;48.836;9.174;2022-09-13T15:57:25;26.40;81.60
48744;DHT22;34538;48.836;9.174;2022-09-13T15:59:52;26.40;82.20
48744;DHT22;34538;48.836;9.174;2022-09-13T16:02:27;26.40;83.20
48744;DHT22;34538;48.836;9.174;2022-09-13T16:04:55;26.30;83.50
48744;DHT22;34538;48.836;9.174;2022-09-13T16:07:22;26.30;84.10
48744;DHT22;34538;48.836;9.174;2022-09-13T16:09:48;26.30;84.90
48744;DHT22;34538;48.836;9.174;2022-09-13T16:12:14;26.20;85.10
48744;DHT22;34538;48.836;9.174;2022-09-13T16:14:40;26.10;85.50
48744;DHT22;34538;48.836;9.174;2022-09-13T16:17:20;26.10;85.90
48744;DHT22;34538;48.836;9.174;2022-09-13T16:19:46;26.00;86.50
48744;DHT22;34538;48.836;9.174;2022-09-13T16:22:12;26.00;86.70
48744;DHT22;34538;48.836;9.174;2022-09-13T16:24:38;25.90;87.40
48744;DHT22;34538;48.836;9.174;2022-09-13T16:27:04;25.80;88.20
48744;DHT22;34538;48.836;9.174;2022-09-13T16:29:29;25.80;88.50
48744;DHT22;34538;48.836;9.174;2022-09-13T16:31:55;25.80;89.80
48744;DHT22;34538;48.836;9.174;2022-09-13T16:34:24;25.70;89.90
48744;DHT22;34538;48.836;9.174;2022-09-13T16:36:50;25.60;90.20
48744;DHT22;34538;48.836;9.174;2022-09-13T16:39:17;25.60;90.50
48744;DHT22;34538;48.836;9.174;2022-09-13T16:41:42;25.50;90.50
48744;DHT22;34538;48.836;9.174;2022-09-13T16:44:08;25.50;90.80
48744;DHT22;34538;48.836;9.174;2022-09-13T16:46:34;25.40;91.00
48744;DHT22;34538;48.836;9.174;2022-09-13T16:48:59;25.40;91.20
48744;DHT22;34538;48.836;9.174;2022-09-13T16:51:25;25.30;91.50
48744;DHT22;34538;48.836;9.174;2022-09-13T16:53:52;25.30;91.60
48744;DHT22;34538;48.836;9.174;2022-09-13T16:56:21;25.20;91.70
48744;DHT22;34538;48.836;9.174;2022-09-13T16:58:48;25.20;92.20
48744;DHT22;34538;48.836;9.174;2022-09-13T17:01:19;25.10;92.40
48744;DHT22;34538;48.836;9.174;2022-09-13T17:03:46;25.00;92.70
48744;DHT22;34538;48.836;9.174;2022-09-13T17:06:13;24.90;93.70
48744;DHT22;34538;48.836;9.174;2022-09-13T17:08:41;24.90;93.90
48744;DHT22;34538;48.836;9.174;2022-09-13T17:11:12;24.80;94.30
48744;DHT22;34538;48.836;9.174;2022-09-13T17:13:39;24.60;94.00
48744;DHT22;34538;48.836;9.174;2022-09-13T17:16:17;24.50;94.00
48744;DHT22;34538;48.836;9.174;2022-09-13T17:18:43;24.50;94.10
48744;DHT22;34538;48.836;9.174;2022-09-13T17:21:09;24.40;95.20
48744;DHT22;34538;48.836;9.174;2022-09-13T17:23:34;24.30;95.90
48744;DHT22;34538;48.836;9.174;2022-09-13T17:26:00;24.20;96.90
48744;DHT22;34538;48.836;9.174;2022-09-13T17:28:26;24.10;96.90
48744;DHT22;34538;48.836;9.174;2022-09-13T17:30:52;24.00;96.90
48744;DHT22;34538;48.836;9.174;2022-09-13T17:33:18;23.90;96.70
48744;DHT22;34538;48.836;9.174;2022-09-13T17:35:43;23.80;95.90
48744;DHT22;34538;48.836;9.174;2022-09-13T17:38:09;23.70;96.20
48744;DHT22;34538;48.836;9.174;2022-09-13T17:40:36;23.60;96.00
48744;DHT22;34538;48.836;9.174;2022-09-13T17:43:02;23.60;97.20
48744;DHT22;34538;48.836;9.174;2022-09-13T17:45:28;23.50;97.60
48744;DHT22;34538;48.836;9.174;2022-09-13T17:47:55;23.40;98.00
48744;DHT22;34538;48.836;9.174;2022-09-13T17:50:23;23.30;97.80
48744;DHT22;34538;48.836;9.174;2022-09-13T17:52:49;23.20;98.00
48744;DHT22;34538;48.836;9.174;2022-09-13T17:55:17;23.20;98.10
48744;DHT22;34538;48.836;9.174;2022-09-13T17:57:47;23.00;98.20
48744;DHT22;34538;48.836;9.174;2022-09-13T18:00:14;23.00;98.80
48744;DHT22;34538;48.836;9.174;2022-09-13T18:02:43;22.90;99.00
48744;DHT22;34538;48.836;9.174;2022-09-13T18:05:09;22.80;99.00
48744;DHT22;34538;48.836;9.174;2022-09-13T18:07:34;22.70;98.70
48744;DHT22;34538;48.836;9.174;2022-09-13T18:10:00;22.70;98.90
48744;DHT22;34538;48.836;9.174;2022-09-13T18:12:25;22.60;99.00
48744;DHT22;34538;48.836;9.174;2022-09-13T18:14:51;22.60;98.80
48744;DHT22;34538;48.836;9.174;2022-09-13T18:17:17;22.50;98.90
48744;DHT22;34538;48.836;9.174;2022-09-13T18:19:42;22.50;98.40
48744;DHT22;34538;48.836;9.174;2022-09-13T18:22:08;22.40;98.70
48744;DHT22;34538;48.836;9.174;2022-09-13T18:24:34;22.40;99.80
48744;DHT22;34538;48.836;9.174;2022-09-13T18:27:01;22.30;99.50
48744;DHT22;34538;48.836;9.174;2022-09-13T18:29:27;22.20;99.60
48744;DHT22;34538;48.836;9.174;2022-09-13T18:31:54;22.10;99.80
48744;DHT22;34538;48.836;9.174;2022-09-13T18:34:20;22.00;99.90
48744;DHT22;34538;48.836;9.174;2022-09-13T18:36:46;22.00;99.90
48744;DHT22;34538;48.836;9.174;2022-09-13T18:39:15;21.90;99.90
48744;DHT22;34538;48.836;9.174;2022-09-13T18:41:41;21.80;99.90
48744;DHT22;34538;48.836;9.174;2022-09-13T18:44:09;21.70;99.90
48744;DHT22;34538;48.836;9.174;2022-09-13T18:46:35;21.70;99.90